Terminal Aerodrome Forecast
Issued by NWS Cleveland, OH

Home | Current Version | Previous Version | Text Only | Print | Product List | Glossary Off
Versions: 1 2 3 4 5 6 7 8 9 10 11 12 13 14 15 16 17 18 19 20

000
FTUS41 KCLE 261100
TAFTOL
TAF
KTOL 261122Z 2612/2712 VRB03KT 3SM -RASN BR OVC008
     FM261600 30008KT 4SM -SN BR OVC015
     FM261800 30010KT P6SM OVC025
     FM262000 28010G15KT P6SM BKN045
     FM270200 30010KT P6SM BKN250=

USA.gov is the U.S. government's official web portal to all federal, state and local government web resources and services.